Daly City, CA (94014)

8:16 AM PDT on September 03, 2015 (GMT -0700)
Crocker Amazon | | Change Station
CLOSE
Current Station
Personal Weather Station
Location: San Francisco, CA
Elevation: 420 ft
Nearby Weather Stations

Elev 420 ft 37.71 °N, 122.44 °W | Updated 3 minutes ago

Partly Cloudy
Partly Cloudy
61.9 °F
Feels Like 61.9 °F
N
3.2
Wind Variable Wind from West

Today
High -- | Low -- °F
--% Chance of Precip.
Yesterday
High -- | Low -- °F
Precip. -- in
6:41 AM 7:36 PM
Waning Gibbous, 69% visible
Pressure 29.94 in
Visibility 10.0 miles
Clouds Few 1000 ft
Dew Point 57 °F
Humidity 83%
Rainfall 0.00 in
Snow Depth Not available.
UV 1 out of 12
Pollen 8.00 out of 12
Air Quality Not available.
Flu Activity Not available.
METAR KSFO 031456Z 26012KT 10SM FEW010 17/12 A2994 RMK AO2 SLP138 T01670122 53011
Pressure 29.94 in
Visibility 10.0 miles
Clouds Few 1000 ft
Dew Point 57 °F
Humidity 83%
Rainfall 0.00 in
Snow Depth Not available.
UV 1 out of 12
Pollen 8.00 out of 12
Air Quality Not available.
Flu Activity Not available.
METAR KSFO 031456Z 26012KT 10SM FEW010 17/12 A2994 RMK AO2 SLP138 T01670122 53011

10-Day Weather Forecast

×

Almanac

Astronomy

Sep. 03, 2015 Rise Set
Actual Time
Civil Twilight
Nautical Twilight
Astronomical Twilight
Moon
Length of Visible Light
Length of Day
Tomorrow will be .
, % of the Moon is Illuminated

Today's Extremes

State Highs State Lows

Community

WunderPhotos

Upload Photos

1,851,972 photos uploaded!

WunderBlogs® & News

Nearby

Air Quality

  Air Quality AQ Index Pollutant
Not available.

Snow Depth

Station Depth Elevation

Earthquake Activity

City Distance Mag. Time & Date
Minimum magnitude displayed is 2.5.

Coastal Water Temperatures

Place Temperature

Stations

Nearby Weather Stations

Station Location Temp. Windchill Dew Point Humidity Wind Precip. Elev Updated Type